Time;durP1;ratioP1;P1;durP2;ratioP2;P2;SDS_P1;SDS_P2;PMS_P1;PMS_P2;Temp;Humidity;BMP_temperature;BMP_pressure;BME280_temperature;BME280_humidity;BME280_pressure;Samples;Min_cycle;Max_cycle;Signal;HPM_P1;HPM_P2
2023/04/13 00:01:27;;;;;;;;;;;;;;;5.93;87.95;99361.03;5022432;28;20298;-66
2023/04/13 00:03:52;;;;;;;;;;;;;;;5.92;88.11;99354.94;5023003;28;19960;-67
2023/04/13 00:06:19;;;;;;;;;;;;;;;5.91;88.36;99350.69;5016688;28;19918;-66
2023/04/13 00:08:44;;;;;;;;;;;;;;;5.91;88.80;99353.31;5027108;28;19986;-68
2023/04/13 00:11:10;;;;;;;;;;;;;;;5.87;89.53;99352.81;5024097;28;20539;-67
2023/04/13 00:13:39;;;;;;;;;;;;;;;5.85;89.51;99346.09;5020415;28;21304;-66
2023/04/13 00:16:06;;;;;;;;;;;;;;;5.81;90.55;99357.97;5024411;28;20346;-65
2023/04/13 00:18:31;;;;;;;;;;;;;;;5.77;90.53;99365.38;5020895;28;19919;-66
2023/04/13 00:20:58;;;;;;;;;;;;;;;5.76;91.08;99365.56;5024810;28;19917;-68
2023/04/13 00:23:23;;;;;;;;;;;;;;;5.75;91.33;99354.22;5020555;28;19925;-66
2023/04/13 00:25:50;;;;;;;;;;;;;;;5.75;91.74;99346.31;5022785;28;19924;-66
2023/04/13 00:28:15;;;;;;;;;;;;;;;5.78;92.11;99342.50;5026679;28;19917;-66
2023/04/13 00:30:41;;;;;;;;;;;;;;;5.79;92.24;99341.53;5023177;28;19927;-67
2023/04/13 00:33:06;;;;;;;;;;;;;;;5.81;92.50;99343.00;5020234;28;19926;-66
2023/04/13 00:35:31;;;;;;;;;;;;;;;5.84;92.92;99339.19;5014423;28;19944;-67
2023/04/13 00:37:57;;;;;;;;;;;;;;;5.85;93.07;99354.81;5025305;28;19921;-68
2023/04/13 00:40:23;;;;;;;;;;;;;;;5.81;93.69;99347.44;5022115;28;20375;-66
2023/04/13 00:42:49;;;;;;;;;;;;;;;5.72;94.24;99346.66;5023489;28;20410;-67
2023/04/13 00:45:15;;;;;;;;;;;;;;;5.66;95.38;99342.09;5025244;28;20517;-66
2023/04/13 00:47:42;;;;;;;;;;;;;;;5.63;96.17;99341.63;5025477;28;19924;-68
2023/04/13 00:50:07;;;;;;;;;;;;;;;5.65;96.61;99339.66;5025922;28;19959;-70
2023/04/13 00:52:37;;;;;;;;;;;;;;;5.67;97.41;99342.91;5015717;28;19932;-67
2023/04/13 00:55:02;;;;;;;;;;;;;;;5.66;97.95;99336.00;5026641;28;19913;-68
2023/04/13 00:57:28;;;;;;;;;;;;;;;5.65;97.86;99332.56;5027127;28;19944;-67
2023/04/13 00:59:53;;;;;;;;;;;;;;;5.66;98.52;99339.47;5029054;28;19917;-69
2023/04/13 01:02:25;;;;;;;;;;;;;;;5.69;98.51;99333.84;5030748;28;19924;-68
2023/04/13 01:04:51;;;;;;;;;;;;;;;5.72;98.87;99327.41;5021559;28;19945;-66
2023/04/13 01:07:31;;;;;;;;;;;;;;;5.76;99.04;99337.41;5027589;28;20349;-65
2023/04/13 01:09:56;;;;;;;;;;;;;;;5.83;98.90;99329.66;5026127;28;19928;-66
2023/04/13 01:12:38;;;;;;;;;;;;;;;5.88;98.81;99317.56;5023095;28;19921;-66
2023/04/13 01:15:11;;;;;;;;;;;;;;;5.96;98.25;99327.25;5024244;28;20387;-65
2023/04/13 01:17:37;;;;;;;;;;;;;;;5.94;98.43;99315.25;5029701;28;19917;-66
2023/04/13 01:20:09;;;;;;;;;;;;;;;5.93;98.27;99330.25;5028268;28;19913;-66
2023/04/13 01:22:36;;;;;;;;;;;;;;;5.94;98.61;99334.50;5028616;28;19963;-66
2023/04/13 01:25:21;;;;;;;;;;;;;;;5.81;99.25;99326.38;5028133;28;19924;-67
2023/04/13 01:28:03;;;;;;;;;;;;;;;5.70;100.00;99326.75;5026806;28;19963;-66
2023/04/13 01:30:31;;;;;;;;;;;;;;;5.63;100.00;99339.00;5021340;28;19921;-66
2023/04/13 01:32:57;;;;;;;;;;;;;;;5.61;100.00;99333.91;5030831;28;19925;-67
2023/04/13 01:35:24;;;;;;;;;;;;;;;5.62;100.00;99342.63;5018634;28;19929;-66
2023/04/13 01:37:49;;;;;;;;;;;;;;;5.65;100.00;99339.66;5028767;28;19964;-67
2023/04/13 01:40:15;;;;;;;;;;;;;;;5.64;100.00;99357.25;5027558;28;20371;-66
2023/04/13 01:42:41;;;;;;;;;;;;;;;5.67;100.00;99361.34;5025999;28;19929;-69
2023/04/13 01:45:10;;;;;;;;;;;;;;;5.68;100.00;99352.47;5026130;28;20386;-69
2023/04/13 01:47:37;;;;;;;;;;;;;;;5.68;100.00;99373.53;5030272;28;19917;-68
2023/04/13 01:50:07;;;;;;;;;;;;;;;5.68;100.00;99382.25;5028077;28;19917;-66
2023/04/13 01:52:33;;;;;;;;;;;;;;;5.69;100.00;99391.78;5016873;28;19922;-67
2023/04/13 01:54:59;;;;;;;;;;;;;;;5.65;100.00;99382.59;5017876;28;19925;-68
2023/04/13 01:57:25;;;;;;;;;;;;;;;5.65;100.00;99398.41;5024969;28;19943;-69
2023/04/13 01:59:50;;;;;;;;;;;;;;;5.62;100.00;99385.59;5032849;28;20275;-71
2023/04/13 02:02:16;;;;;;;;;;;;;;;5.63;100.00;99400.41;5022204;28;20571;-67
2023/04/13 02:04:41;;;;;;;;;;;;;;;5.62;100.00;99409.28;5021468;28;19921;-68
2023/04/13 02:07:06;;;;;;;;;;;;;;;5.62;100.00;99408.47;5026825;28;20019;-69
2023/04/13 02:09:32;;;;;;;;;;;;;;;5.61;100.00;99415.56;5028694;28;19963;-66
2023/04/13 02:11:57;;;;;;;;;;;;;;;5.65;100.00;99423.91;5026085;28;19925;-68
2023/04/13 02:14:22;;;;;;;;;;;;;;;5.65;100.00;99418.66;5016297;28;19913;-68
2023/04/13 02:16:47;;;;;;;;;;;;;;;5.65;100.00;99423.91;5023835;28;19917;-67
2023/04/13 02:19:13;;;;;;;;;;;;;;;5.67;100.00;99430.66;5029399;28;19914;-73
2023/04/13 02:21:40;;;;;;;;;;;;;;;5.68;100.00;99436.75;5020729;28;19917;-69
2023/04/13 02:24:06;;;;;;;;;;;;;;;5.69;100.00;99433.09;5028243;28;19948;-67
2023/04/13 02:26:31;;;;;;;;;;;;;;;5.70;100.00;99438.19;5029477;28;19957;-66
2023/04/13 02:28:57;;;;;;;;;;;;;;;5.72;100.00;99448.56;5027332;28;20414;-70
2023/04/13 02:31:22;;;;;;;;;;;;;;;5.71;100.00;99446.91;5027628;28;20361;-68
2023/04/13 02:33:47;;;;;;;;;;;;;;;5.73;100.00;99461.56;5028346;28;19925;-68
2023/04/13 02:36:12;;;;;;;;;;;;;;;5.75;100.00;99474.56;5028323;28;20374;-67
2023/04/13 02:38:37;;;;;;;;;;;;;;;5.78;100.00;99488.22;5028111;28;19925;-66
2023/04/13 02:41:03;;;;;;;;;;;;;;;5.76;100.00;99482.28;5029560;28;19921;-71
2023/04/13 02:43:28;;;;;;;;;;;;;;;5.69;100.00;99483.97;5024944;28;19999;-66
2023/04/13 02:45:54;;;;;;;;;;;;;;;5.58;100.00;99489.63;5022855;28;19917;-66
2023/04/13 02:48:20;;;;;;;;;;;;;;;5.60;100.00;99490.28;5028376;28;19923;-66
2023/04/13 02:50:46;;;;;;;;;;;;;;;5.64;100.00;99494.19;5026458;28;19940;-66
2023/04/13 02:53:11;;;;;;;;;;;;;;;5.68;100.00;99487.59;5021461;28;19925;-69
2023/04/13 02:55:37;;;;;;;;;;;;;;;5.73;100.00;99487.06;5027559;28;19960;-66
2023/04/13 02:58:03;;;;;;;;;;;;;;;5.74;100.00;99484.25;5026799;28;19916;-67
2023/04/13 03:00:28;;;;;;;;;;;;;;;5.75;100.00;99495.63;5023784;28;20314;-67
2023/04/13 03:02:53;;;;;;;;;;;;;;;5.74;100.00;99497.44;5028788;28;20333;-67
2023/04/13 03:05:19;;;;;;;;;;;;;;;5.72;100.00;99498.59;5025536;28;19919;-67
2023/04/13 03:07:44;;;;;;;;;;;;;;;5.70;100.00;99496.16;5024004;28;19932;-66
2023/04/13 03:10:09;;;;;;;;;;;;;;;5.71;100.00;99502.22;5027229;28;19917;-66
2023/04/13 03:12:35;;;;;;;;;;;;;;;5.69;100.00;99510.31;5024791;28;20016;-67
2023/04/13 03:15:02;;;;;;;;;;;;;;;5.67;100.00;99514.09;5024380;28;19917;-66
2023/04/13 03:17:29;;;;;;;;;;;;;;;5.70;100.00;99519.84;5020225;28;19948;-66
2023/04/13 03:19:54;;;;;;;;;;;;;;;5.71;100.00;99529.38;5023572;28;19924;-67
2023/04/13 03:22:19;;;;;;;;;;;;;;;5.72;100.00;99538.94;5023059;28;20398;-66
2023/04/13 03:24:44;;;;;;;;;;;;;;;5.73;100.00;99527.41;5025472;28;19921;-66
2023/04/13 03:27:09;;;;;;;;;;;;;;;5.74;100.00;99528.22;5023178;28;20401;-66
2023/04/13 03:29:35;;;;;;;;;;;;;;;5.73;100.00;99540.56;5022932;28;19917;-67
2023/04/13 03:32:00;;;;;;;;;;;;;;;5.72;100.00;99540.75;5023277;28;19921;-69
2023/04/13 03:34:25;;;;;;;;;;;;;;;5.71;100.00;99547.81;5026693;28;19917;-67
2023/04/13 03:36:51;;;;;;;;;;;;;;;5.70;100.00;99546.19;5025016;28;20058;-67
2023/04/13 03:39:16;;;;;;;;;;;;;;;5.68;100.00;99556.06;5021469;28;19917;-68
2023/04/13 03:41:42;;;;;;;;;;;;;;;5.65;100.00;99561.69;5026510;28;19924;-67
2023/04/13 03:44:07;;;;;;;;;;;;;;;5.63;100.00;99558.41;5025024;28;20574;-67
2023/04/13 03:46:34;;;;;;;;;;;;;;;5.60;100.00;99562.19;5025298;28;19927;-69
2023/04/13 03:48:59;;;;;;;;;;;;;;;5.59;100.00;99559.75;5028765;28;19936;-66
2023/04/13 03:51:24;;;;;;;;;;;;;;;5.58;100.00;99572.09;5026993;28;20286;-69
2023/04/13 03:53:49;;;;;;;;;;;;;;;5.60;100.00;99571.91;5026796;28;19921;-66
2023/04/13 03:56:15;;;;;;;;;;;;;;;5.61;100.00;99578.81;5024107;28;20015;-66
2023/04/13 03:58:40;;;;;;;;;;;;;;;5.61;100.00;99584.09;5028967;28;20397;-66
2023/04/13 04:01:08;;;;;;;;;;;;;;;5.64;100.00;99580.28;5025830;28;19917;-67
2023/04/13 04:03:33;;;;;;;;;;;;;;;5.67;100.00;99582.59;5027704;28;20307;-67
2023/04/13 04:05:59;;;;;;;;;;;;;;;5.71;100.00;99591.78;5022624;28;19975;-69
2023/04/13 04:08:24;;;;;;;;;;;;;;;5.73;100.00;99587.16;5026850;28;19917;-66
2023/04/13 04:10:49;;;;;;;;;;;;;;;5.76;100.00;99592.09;5023942;28;20012;-66
2023/04/13 04:13:15;;;;;;;;;;;;;;;5.75;100.00;99599.16;5018756;28;19921;-67
2023/04/13 04:15:40;;;;;;;;;;;;;;;5.75;100.00;99607.06;5022633;28;19918;-66
2023/04/13 04:18:05;;;;;;;;;;;;;;;5.77;100.00;99599.81;5023576;28;20004;-67
2023/04/13 04:20:31;;;;;;;;;;;;;;;5.82;100.00;99608.06;5027465;28;19928;-67
2023/04/13 04:23:00;;;;;;;;;;;;;;;5.84;100.00;99619.25;5025497;28;20298;-67
2023/04/13 04:25:26;;;;;;;;;;;;;;;5.88;100.00;99617.09;5022729;28;19933;-69
2023/04/13 04:27:51;;;;;;;;;;;;;;;5.91;100.00;99611.50;5024377;28;19998;-66
2023/04/13 04:30:17;;;;;;;;;;;;;;;5.95;100.00;99619.88;5030294;28;20196;-67
2023/04/13 04:32:43;;;;;;;;;;;;;;;5.97;100.00;99631.91;5030157;28;20442;-66
2023/04/13 04:35:10;;;;;;;;;;;;;;;5.98;100.00;99627.44;5024431;28;20012;-66
2023/04/13 04:37:36;;;;;;;;;;;;;;;5.98;100.00;99635.34;5032205;28;20357;-67
2023/04/13 04:40:04;;;;;;;;;;;;;;;5.97;100.00;99647.72;5027887;28;19920;-69
2023/04/13 04:42:30;;;;;;;;;;;;;;;5.96;100.00;99645.25;5020439;28;20357;-66
2023/04/13 04:44:55;;;;;;;;;;;;;;;5.94;100.00;99644.59;5022855;28;19925;-69
2023/04/13 04:47:23;;;;;;;;;;;;;;;5.91;100.00;99651.03;5028511;28;19924;-66
2023/04/13 04:49:48;;;;;;;;;;;;;;;5.90;100.00;99655.47;5028741;28;20016;-66
2023/04/13 04:52:14;;;;;;;;;;;;;;;5.89;100.00;99653.84;5030064;28;19928;-66
2023/04/13 04:54:39;;;;;;;;;;;;;;;5.89;100.00;99656.47;5023436;28;19979;-66
2023/04/13 04:57:04;;;;;;;;;;;;;;;5.88;100.00;99660.06;5028333;28;20387;-67
2023/04/13 04:59:30;;;;;;;;;;;;;;;5.87;100.00;99661.06;5021766;28;19935;-68
2023/04/13 05:01:55;;;;;;;;;;;;;;;5.86;100.00;99656.78;5029122;28;19924;-67
2023/04/13 05:04:20;;;;;;;;;;;;;;;5.85;100.00;99665.69;5025590;28;20433;-66
2023/04/13 05:06:47;;;;;;;;;;;;;;;5.84;100.00;99664.03;5023522;28;19917;-67
2023/04/13 05:09:13;;;;;;;;;;;;;;;5.82;100.00;99666.03;5028223;28;19970;-66
2023/04/13 05:11:38;;;;;;;;;;;;;;;5.84;100.00;99673.75;5026692;28;20008;-66
2023/04/13 05:14:04;;;;;;;;;;;;;;;5.85;100.00;99672.75;5027804;28;20015;-69
2023/04/13 05:16:30;;;;;;;;;;;;;;;5.89;100.00;99674.06;5022943;28;20390;-66
2023/04/13 05:18:55;;;;;;;;;;;;;;;5.91;100.00;99680.00;5025532;28;19917;-67
2023/04/13 05:21:20;;;;;;;;;;;;;;;5.94;100.00;99679.66;5018107;28;19936;-66
2023/04/13 05:23:47;;;;;;;;;;;;;;;5.97;100.00;99679.34;5026006;28;19918;-66
2023/04/13 05:26:12;;;;;;;;;;;;;;;5.99;100.00;99687.88;5028610;28;19917;-66
2023/04/13 05:28:37;;;;;;;;;;;;;;;5.98;100.00;99699.41;5029454;28;19916;-66
2023/04/13 05:31:03;;;;;;;;;;;;;;;6.00;100.00;99694.81;5026977;28;19917;-66
2023/04/13 05:33:29;;;;;;;;;;;;;;;6.02;100.00;99692.81;5029378;28;20393;-64
2023/04/13 05:35:55;;;;;;;;;;;;;;;6.02;100.00;99705.16;5026759;28;19924;-66
2023/04/13 05:38:21;;;;;;;;;;;;;;;6.04;100.00;99703.19;5021857;28;19917;-65
2023/04/13 05:40:47;;;;;;;;;;;;;;;6.06;100.00;99709.94;5026258;28;19917;-67
2023/04/13 05:43:12;;;;;;;;;;;;;;;6.06;100.00;99698.56;5024683;28;19913;-66
2023/04/13 05:45:37;;;;;;;;;;;;;;;6.06;100.00;99702.03;5021098;28;19913;-67
2023/04/13 05:48:03;;;;;;;;;;;;;;;6.06;100.00;99714.38;5021350;28;19925;-65
2023/04/13 05:50:28;;;;;;;;;;;;;;;6.09;100.00;99724.63;5025618;28;19975;-68
2023/04/13 05:52:54;;;;;;;;;;;;;;;6.13;100.00;99713.56;5022784;28;20284;-66
2023/04/13 05:55:20;;;;;;;;;;;;;;;6.17;100.00;99725.41;5028998;28;19918;-66
2023/04/13 05:57:45;;;;;;;;;;;;;;;6.12;100.00;99719.00;5020085;28;20024;-67
2023/04/13 06:00:11;;;;;;;;;;;;;;;6.08;100.00;99728.25;5021276;28;19913;-67
2023/04/13 06:02:38;;;;;;;;;;;;;;;6.06;100.00;99732.81;5027045;28;19928;-68
2023/04/13 06:05:05;;;;;;;;;;;;;;;6.06;100.00;99744.19;5018146;28;19921;-72
2023/04/13 06:07:30;;;;;;;;;;;;;;;6.09;100.00;99758.88;5020573;28;19952;-70
2023/04/13 06:09:55;;;;;;;;;;;;;;;6.11;100.00;99755.06;5023904;28;20339;-67
2023/04/13 06:12:20;;;;;;;;;;;;;;;6.12;100.00;99756.72;5013633;28;19927;-69
2023/04/13 06:14:46;;;;;;;;;;;;;;;6.15;100.00;99766.09;5025442;28;19917;-66
2023/04/13 06:17:11;;;;;;;;;;;;;;;6.18;100.00;99768.41;5022193;28;20008;-68
2023/04/13 06:19:36;;;;;;;;;;;;;;;6.19;100.00;99776.13;5020943;28;19922;-66
2023/04/13 06:22:02;;;;;;;;;;;;;;;6.21;100.00;99775.97;5020747;28;19955;-66
2023/04/13 06:24:27;;;;;;;;;;;;;;;6.16;100.00;99776.47;5013625;28;20310;-69
2023/04/13 06:26:52;;;;;;;;;;;;;;;6.15;100.00;99797.72;5022553;28;20470;-65
2023/04/13 06:29:18;;;;;;;;;;;;;;;6.18;100.00;99813.22;5024886;28;19920;-66
2023/04/13 06:31:43;;;;;;;;;;;;;;;6.13;100.00;99813.72;5028995;28;20298;-65
2023/04/13 06:34:08;;;;;;;;;;;;;;;6.04;100.00;99806.78;5022628;28;19959;-67
2023/04/13 06:36:33;;;;;;;;;;;;;;;5.91;100.00;99801.22;5015613;28;20333;-67
2023/04/13 06:38:58;;;;;;;;;;;;;;;5.83;100.00;99804.66;5016113;28;20307;-67
2023/04/13 06:41:24;;;;;;;;;;;;;;;5.77;100.00;99812.38;5026519;28;19921;-67
2023/04/13 06:43:49;;;;;;;;;;;;;;;5.74;100.00;99810.91;5026784;28;20011;-66
2023/04/13 06:46:14;;;;;;;;;;;;;;;5.77;100.00;99815.00;5018143;28;19914;-66
2023/04/13 06:48:39;;;;;;;;;;;;;;;5.79;100.00;99821.78;5022586;28;20443;-67
2023/04/13 06:51:05;;;;;;;;;;;;;;;5.84;100.00;99816.84;5019949;28;20426;-66
2023/04/13 06:53:30;;;;;;;;;;;;;;;5.89;100.00;99818.97;5023930;28;19932;-66
2023/04/13 06:55:55;;;;;;;;;;;;;;;5.94;100.00;99821.13;5028830;28;20018;-67
2023/04/13 06:58:22;;;;;;;;;;;;;;;5.99;100.00;99830.19;5021805;28;19917;-66
2023/04/13 07:00:47;;;;;;;;;;;;;;;6.03;100.00;99835.94;5026942;28;19921;-63
2023/04/13 07:03:12;;;;;;;;;;;;;;;6.08;100.00;99841.56;5023786;28;20011;-64
2023/04/13 07:05:37;;;;;;;;;;;;;;;6.14;100.00;99836.44;5027172;28;19961;-63
2023/04/13 07:08:03;;;;;;;;;;;;;;;6.22;100.00;99848.78;5022914;28;19924;-64
2023/04/13 07:10:28;;;;;;;;;;;;;;;6.35;100.00;99841.19;5022467;28;19917;-63
2023/04/13 07:12:53;;;;;;;;;;;;;;;6.45;100.00;99846.28;5023510;28;20375;-63
2023/04/13 07:15:18;;;;;;;;;;;;;;;6.55;100.00;99857.47;5022346;28;19917;-64
2023/04/13 07:17:44;;;;;;;;;;;;;;;6.65;100.00;99862.53;5021897;28;19972;-63
2023/04/13 07:20:10;;;;;;;;;;;;;;;6.72;100.00;99866.16;5023887;28;19921;-64
2023/04/13 07:22:36;;;;;;;;;;;;;;;6.79;100.00;99872.41;5018797;28;20053;-64
2023/04/13 07:25:01;;;;;;;;;;;;;;;6.84;100.00;99872.72;5021744;28;20013;-64
2023/04/13 07:27:26;;;;;;;;;;;;;;;6.90;100.00;99881.75;5025250;28;19978;-64
2023/04/13 07:29:52;;;;;;;;;;;;;;;6.97;100.00;99882.75;5020445;28;19928;-63
2023/04/13 07:32:18;;;;;;;;;;;;;;;7.03;100.00;99876.78;5023107;28;19932;-63
2023/04/13 07:34:44;;;;;;;;;;;;;;;7.09;100.00;99878.72;5024590;28;20371;-63
2023/04/13 07:37:09;;;;;;;;;;;;;;;7.16;100.00;99892.88;5023000;28;19940;-63
2023/04/13 07:39:34;;;;;;;;;;;;;;;7.19;99.74;99887.25;5025786;28;19917;-63
2023/04/13 07:42:00;;;;;;;;;;;;;;;7.24;99.35;99884.94;5017469;28;19975;-64
2023/04/13 07:44:26;;;;;;;;;;;;;;;7.28;98.92;99911.81;5019003;28;19940;-63
2023/04/13 07:46:51;;;;;;;;;;;;;;;7.35;98.58;99907.50;5026110;28;20294;-64
2023/04/13 07:49:16;;;;;;;;;;;;;;;7.40;98.08;99918.34;5019562;28;19925;-63
2023/04/13 07:51:41;;;;;;;;;;;;;;;7.38;97.33;99931.75;5025476;28;19921;-64
2023/04/13 07:54:07;;;;;;;;;;;;;;;7.38;97.01;99915.06;5024641;28;19952;-64
2023/04/13 07:56:32;;;;;;;;;;;;;;;7.34;96.58;99927.81;5018008;28;20307;-63
2023/04/13 07:58:57;;;;;;;;;;;;;;;7.40;96.73;99929.75;5027956;28;20015;-64
2023/04/13 08:01:22;;;;;;;;;;;;;;;7.42;95.98;99935.69;5034491;28;20401;-64
2023/04/13 08:03:47;;;;;;;;;;;;;;;7.53;95.95;99934.50;5018477;28;20044;-64
2023/04/13 08:06:13;;;;;;;;;;;;;;;7.63;95.39;99935.09;5007620;28;19913;-64
2023/04/13 08:08:38;;;;;;;;;;;;;;;7.69;94.58;99952.88;5023732;28;19917;-66
2023/04/13 08:11:03;;;;;;;;;;;;;;;7.75;94.09;99952.19;5019169;28;20075;-66
2023/04/13 08:13:29;;;;;;;;;;;;;;;7.89;94.59;99949.81;5022855;28;19937;-66
2023/04/13 08:15:56;;;;;;;;;;;;;;;7.98;94.26;99968.06;5022643;28;20000;-66
2023/04/13 08:18:21;;;;;;;;;;;;;;;8.01;93.71;99969.53;5026796;28;20543;-66
2023/04/13 08:20:47;;;;;;;;;;;;;;;7.98;93.22;99977.81;5015021;28;19924;-66
2023/04/13 08:23:13;;;;;;;;;;;;;;;7.92;92.26;99991.75;5021557;28;20016;-66
2023/04/13 08:25:39;;;;;;;;;;;;;;;7.86;91.61;99987.16;5021938;28;20055;-66
2023/04/13 08:28:04;;;;;;;;;;;;;;;7.89;91.68;99982.34;5019427;28;20395;-67
2023/04/13 08:30:33;;;;;;;;;;;;;;;7.92;91.58;99995.22;5021173;28;19917;-66
2023/04/13 08:32:58;;;;;;;;;;;;;;;7.89;91.98;99978.88;5024839;28;19921;-66
2023/04/13 08:35:23;;;;;;;;;;;;;;;7.97;92.50;99999.97;5024585;28;19922;-66
2023/04/13 08:37:49;;;;;;;;;;;;;;;7.91;91.53;100014.72;5027980;28;20413;-66
2023/04/13 08:40:14;;;;;;;;;;;;;;;7.92;92.19;100011.06;5024045;28;20016;-66
2023/04/13 08:42:40;;;;;;;;;;;;;;;8.10;91.96;100004.72;5024532;28;20301;-66
2023/04/13 08:45:06;;;;;;;;;;;;;;;8.25;91.86;100010.88;5023827;28;19925;-66
2023/04/13 08:47:32;;;;;;;;;;;;;;;8.28;91.10;100021.91;5026341;28;19921;-62
2023/04/13 08:49:58;;;;;;;;;;;;;;;8.42;90.71;100040.72;5026138;28;19914;-63
2023/04/13 08:52:23;;;;;;;;;;;;;;;8.47;88.84;100025.16;5027128;28;19935;-63
2023/04/13 08:54:49;;;;;;;;;;;;;;;8.53;87.96;100035.84;5016707;28;20432;-63
2023/04/13 08:57:14;;;;;;;;;;;;;;;8.51;87.37;100034.38;5024928;28;20000;-66
2023/04/13 08:59:41;;;;;;;;;;;;;;;8.49;86.12;100054.91;5030215;28;19916;-66
2023/04/13 09:02:07;;;;;;;;;;;;;;;8.47;85.49;100049.78;5024344;28;20450;-67
2023/04/13 09:04:34;;;;;;;;;;;;;;;8.47;85.41;100049.78;5022962;28;20004;-65
2023/04/13 09:06:59;;;;;;;;;;;;;;;8.51;85.46;100056.38;5017735;28;19921;-66
2023/04/13 09:09:26;;;;;;;;;;;;;;;8.52;84.12;100055.34;5020864;28;19921;-66
2023/04/13 09:11:51;;;;;;;;;;;;;;;8.58;84.41;100069.69;5024170;28;19917;-68
2023/04/13 09:14:17;;;;;;;;;;;;;;;8.63;84.28;100060.22;5022424;28;22033;-67
2023/04/13 09:16:42;;;;;;;;;;;;;;;8.76;84.27;100069.41;5024841;28;19967;-67
2023/04/13 09:19:08;;;;;;;;;;;;;;;8.67;83.33;100064.19;5031996;28;19960;-66
2023/04/13 09:21:35;;;;;;;;;;;;;;;8.71;83.08;100085.00;5027512;28;19981;-67
2023/04/13 09:24:00;;;;;;;;;;;;;;;8.73;82.90;100081.19;5024114;28;19971;-68
2023/04/13 09:26:26;;;;;;;;;;;;;;;8.64;82.40;100090.16;5029600;28;19948;-66
2023/04/13 09:28:54;;;;;;;;;;;;;;;8.61;82.41;100093.16;5022275;28;20371;-66
2023/04/13 09:31:19;;;;;;;;;;;;;;;8.61;82.16;100085.22;5029268;28;19917;-66
2023/04/13 09:33:46;;;;;;;;;;;;;;;8.65;81.93;100102.41;5029354;28;19921;-66
2023/04/13 09:36:12;;;;;;;;;;;;;;;8.72;81.79;100111.31;5030022;28;19917;-66
2023/04/13 09:38:37;;;;;;;;;;;;;;;8.67;81.25;100105.69;5029203;28;19924;-67
2023/04/13 09:41:02;;;;;;;;;;;;;;;8.69;80.79;100104.53;5021196;28;20012;-66
2023/04/13 09:43:35;;;;;;;;;;;;;;;8.80;80.58;100115.72;5022357;28;19925;-66
2023/04/13 09:46:00;;;;;;;;;;;;;;;8.85;79.40;100119.47;5019174;28;19923;-66
2023/04/13 09:48:25;;;;;;;;;;;;;;;8.87;80.30;100122.75;5027643;28;19992;-66
2023/04/13 09:50:59;;;;;;;;;;;;;;;8.89;79.87;100120.75;5021888;28;19913;-67
2023/04/13 09:53:26;;;;;;;;;;;;;;;8.88;79.54;100136.81;5027440;28;19971;-68
2023/04/13 09:55:58;;;;;;;;;;;;;;;8.85;78.27;100130.06;5026227;28;19920;-66
2023/04/13 09:58:23;;;;;;;;;;;;;;;8.88;78.71;100145.59;5017981;28;19944;-66
2023/04/13 10:00:49;;;;;;;;;;;;;;;8.89;78.63;100152.53;5034810;28;19921;-64
2023/04/13 10:03:15;;;;;;;;;;;;;;;8.86;78.57;100160.00;5021670;28;19924;-65
2023/04/13 10:05:44;;;;;;;;;;;;;;;8.71;79.19;100181.13;5024162;28;20011;-65
2023/04/13 10:08:09;;;;;;;;;;;;;;;7.98;83.37;100186.69;5029306;28;19959;-67
2023/04/13 10:10:35;;;;;;;;;;;;;;;7.47;86.68;100183.47;5023543;28;19959;-65
2023/04/13 10:13:02;;;;;;;;;;;;;;;7.17;90.10;100182.34;5025722;28;19988;-65
2023/04/13 10:15:45;;;;;;;;;;;;;;;7.14;92.05;100188.78;5024509;28;19917;-66
2023/04/13 10:18:13;;;;;;;;;;;;;;;7.19;92.86;100203.28;5027843;28;19917;-66
2023/04/13 10:20:39;;;;;;;;;;;;;;;7.24;93.31;100204.47;5018755;28;19917;-65
2023/04/13 10:23:05;;;;;;;;;;;;;;;7.47;92.86;100202.78;5023439;28;19913;-65
2023/04/13 10:25:30;;;;;;;;;;;;;;;7.70;92.88;100196.84;5027640;28;20315;-65
2023/04/13 10:27:57;;;;;;;;;;;;;;;7.97;91.51;100201.72;5025487;28;19959;-65
2023/04/13 10:30:22;;;;;;;;;;;;;;;8.26;90.63;100206.44;5024914;28;19913;-65
2023/04/13 10:32:47;;;;;;;;;;;;;;;8.54;88.68;100206.03;5030476;28;20054;-65
2023/04/13 10:35:14;;;;;;;;;;;;;;;8.74;87.98;100201.97;5023121;28;19913;-65
2023/04/13 10:37:41;;;;;;;;;;;;;;;8.85;86.23;100206.03;5022125;28;19917;-65
2023/04/13 10:40:09;;;;;;;;;;;;;;;8.84;84.18;100229.03;5028383;28;19920;-65
2023/04/13 10:43:00;;;;;;;;;;;;;;;8.82;82.90;100223.09;5021791;28;20257;-63
2023/04/13 10:45:26;;;;;;;;;;;;;;;8.83;81.47;100242.44;5017609;28;19917;-63
2023/04/13 10:47:52;;;;;;;;;;;;;;;8.79;80.05;100241.97;5024195;28;20294;-64
2023/04/13 10:50:18;;;;;;;;;;;;;;;8.81;80.39;100236.50;5024515;28;20005;-63
2023/04/13 10:52:54;;;;;;;;;;;;;;;8.88;80.46;100245.38;5021697;28;20529;-64
2023/04/13 10:55:21;;;;;;;;;;;;;;;8.86;77.93;100248.22;5021356;28;19917;-63
2023/04/13 10:57:47;;;;;;;;;;;;;;;8.87;77.60;100255.16;5027751;28;19913;-64
2023/04/13 11:00:20;;;;;;;;;;;;;;;8.95;77.51;100256.91;5024317;28;19924;-63
2023/04/13 11:02:48;;;;;;;;;;;;;;;8.97;77.33;100274.31;5023656;28;19963;-63
2023/04/13 11:05:14;;;;;;;;;;;;;;;9.02;77.01;100271.13;5024194;28;20000;-64
2023/04/13 11:07:40;;;;;;;;;;;;;;;8.95;76.68;100278.09;5022928;28;20055;-64
2023/04/13 11:10:06;;;;;;;;;;;;;;;8.90;76.31;100281.28;5022497;28;19917;-63
2023/04/13 11:12:31;;;;;;;;;;;;;;;8.91;75.29;100293.53;5023683;28;19928;-64
2023/04/13 11:14:56;;;;;;;;;;;;;;;8.88;75.22;100301.00;5022072;28;20398;-64
2023/04/13 11:17:21;;;;;;;;;;;;;;;8.90;74.57;100288.41;5014681;28;19989;-65
2023/04/13 11:19:53;;;;;;;;;;;;;;;9.05;75.24;100293.78;5021359;28;19917;-64
2023/04/13 11:22:21;;;;;;;;;;;;;;;9.33;75.39;100297.59;5021768;28;20314;-63
2023/04/13 11:24:47;;;;;;;;;;;;;;;9.59;75.61;100287.47;5026157;28;20644;-64
2023/04/13 11:27:19;;;;;;;;;;;;;;;9.79;74.65;100289.63;5025015;28;20008;-63
2023/04/13 11:29:44;;;;;;;;;;;;;;;9.78;73.60;100295.94;5018690;28;19924;-63
2023/04/13 11:32:17;;;;;;;;;;;;;;;9.80;72.84;100301.88;5026080;28;19921;-63
2023/04/13 11:34:42;;;;;;;;;;;;;;;9.88;73.38;100301.81;5025746;28;20405;-64
2023/04/13 11:37:07;;;;;;;;;;;;;;;9.84;72.47;100288.09;5017338;28;19925;-64
2023/04/13 11:39:34;;;;;;;;;;;;;;;9.89;72.03;100293.69;5023485;28;19983;-63
2023/04/13 11:42:03;;;;;;;;;;;;;;;10.22;72.95;100280.97;5021425;28;20318;-64
2023/04/13 11:44:28;;;;;;;;;;;;;;;10.33;72.10;100292.94;5020000;28;19990;-64
2023/04/13 11:46:55;;;;;;;;;;;;;;;10.26;71.35;100288.56;5021646;28;20290;-63
2023/04/13 11:49:20;;;;;;;;;;;;;;;10.41;71.89;100292.06;5008043;28;20029;-64
2023/04/13 11:51:46;;;;;;;;;;;;;;;10.71;71.76;100328.22;5024383;28;20374;-64
2023/04/13 11:54:11;;;;;;;;;;;;;;;10.90;71.68;100291.44;5023909;28;20023;-63
2023/04/13 11:56:36;;;;;;;;;;;;;;;10.98;70.84;100302.78;5021686;28;19913;-64
2023/04/13 11:59:01;;;;;;;;;;;;;;;10.89;69.90;100295.13;5024655;28;19920;-63
2023/04/13 12:01:27;;;;;;;;;;;;;;;10.87;68.94;100311.25;5027161;28;19917;-63
2023/04/13 12:03:52;;;;;;;;;;;;;;;10.99;69.12;100295.66;5016818;28;20393;-63
2023/04/13 12:06:17;;;;;;;;;;;;;;;11.15;68.61;100296.25;5023945;28;20549;-64
2023/04/13 12:08:43;;;;;;;;;;;;;;;11.08;66.38;100308.66;5008319;28;19971;-64
2023/04/13 12:11:09;;;;;;;;;;;;;;;10.88;65.78;100314.72;5022352;28;19924;-63
2023/04/13 12:13:38;;;;;;;;;;;;;;;10.70;66.00;100307.97;5026802;28;20016;-63
2023/04/13 12:16:03;;;;;;;;;;;;;;;10.73;67.11;100320.88;5025743;28;19925;-64
2023/04/13 12:18:30;;;;;;;;;;;;;;;10.76;66.82;100317.03;5023736;28;19918;-64
2023/04/13 12:20:59;;;;;;;;;;;;;;;10.63;65.71;100322.97;5024347;28;19986;-65
2023/04/13 12:23:24;;;;;;;;;;;;;;;10.44;66.48;100310.28;5017846;28;19932;-65
2023/04/13 12:25:57;;;;;;;;;;;;;;;10.56;66.81;100306.13;5023055;28;19913;-63
2023/04/13 12:28:29;;;;;;;;;;;;;;;10.91;67.60;100301.06;5018530;28;20223;-65
2023/04/13 12:31:00;;;;;;;;;;;;;;;11.17;67.08;100314.66;5021090;28;19917;-65
2023/04/13 12:33:25;;;;;;;;;;;;;;;11.44;65.33;100313.94;5023629;28;19980;-64
2023/04/13 12:35:50;;;;;;;;;;;;;;;11.64;64.17;100308.00;5026161;28;19917;-64
2023/04/13 12:38:15;;;;;;;;;;;;;;;11.63;62.51;100325.81;5022727;28;19924;-65
2023/04/13 12:40:40;;;;;;;;;;;;;;;11.67;62.84;100327.06;5022967;28;19917;-64
2023/04/13 12:43:05;;;;;;;;;;;;;;;11.57;61.57;100331.06;5018590;28;20413;-64